Time;durP1;ratioP1;P1;durP2;ratioP2;P2;SDS_P1;SDS_P2;PMS_P1;PMS_P2;Temp;Humidity;BMP_temperature;BMP_pressure;BME280_temperature;BME280_humidity;BME280_pressure;Samples;Min_cycle;Max_cycle;Signal;HPM_P1;HPM_P2
2024/04/16 00:02:13;;;;;;;5.17;1.33;;;;;;;5.57;78.89;94782.75;5437161;26;20238;-82
2024/04/16 00:04:38;;;;;;;6.03;1.50;;;;;;;5.21;80.10;94787.59;5409554;26;20331;-82
2024/04/16 00:07:04;;;;;;;11.70;1.53;;;;;;;5.29;80.17;94790.28;5431608;26;20289;-82
2024/04/16 00:09:29;;;;;;;4.27;1.57;;;;;;;5.09;80.05;94775.78;5396710;26;20609;-82
2024/04/16 00:11:54;;;;;;;8.57;1.87;;;;;;;5.43;79.69;94794.25;5437928;26;20703;-83
2024/04/16 00:14:20;;;;;;;5.50;1.50;;;;;;;5.55;79.33;94779.47;5436645;26;20234;-81
2024/04/16 00:16:45;;;;;;;8.60;1.80;;;;;;;5.46;79.56;94772.56;5432384;26;20282;-81
2024/04/16 00:19:10;;;;;;;9.30;1.70;;;;;;;5.34;79.90;94785.56;5420860;26;20585;-81
2024/04/16 00:21:36;;;;;;;4.57;1.23;;;;;;;5.37;79.84;94772.41;5402106;26;20663;-82
2024/04/16 00:24:01;;;;;;;7.83;1.70;;;;;;;5.49;79.19;94749.94;5434117;26;20292;-81
2024/04/16 00:26:26;;;;;;;10.70;1.90;;;;;;;5.65;78.71;94754.50;5408239;26;20867;-81
2024/04/16 00:28:52;;;;;;;13.63;2.10;;;;;;;5.70;77.74;94757.50;5443565;26;20246;-82
2024/04/16 00:31:17;;;;;;;9.77;1.80;;;;;;;5.57;77.12;94757.81;5440974;26;20242;-81
2024/04/16 00:33:42;;;;;;;7.27;1.93;;;;;;;5.75;77.25;94755.34;5436107;26;20782;-82
2024/04/16 00:36:08;;;;;;;7.03;1.50;;;;;;;5.58;77.84;94763.75;5415387;26;20303;-82
2024/04/16 00:38:33;;;;;;;3.63;1.57;;;;;;;5.86;77.15;94754.38;5408648;26;20243;-82
2024/04/16 00:40:58;;;;;;;7.17;1.63;;;;;;;5.57;77.47;94744.91;5408806;26;20247;-82
2024/04/16 00:43:24;;;;;;;7.97;1.67;;;;;;;5.64;76.40;94764.00;5440526;26;20273;-81
2024/04/16 00:45:53;;;;;;;12.73;1.97;;;;;;;5.73;77.54;94744.34;5399016;26;20611;-81
2024/04/16 00:48:22;;;;;;;6.57;1.70;;;;;;;5.69;77.27;94745.56;5434936;26;20232;-81
2024/04/16 00:50:47;;;;;;;10.00;1.70;;;;;;;5.77;76.22;94732.81;5433764;26;20236;-82
2024/04/16 00:53:13;;;;;;;10.23;1.70;;;;;;;5.39;77.24;94733.69;5398408;26;20258;-80
2024/04/16 00:55:39;;;;;;;10.80;2.40;;;;;;;5.43;77.58;94729.06;5446866;26;20246;-81
2024/04/16 00:58:05;;;;;;;8.10;2.07;;;;;;;5.57;77.39;94726.09;5436161;26;20605;-81
2024/04/16 01:00:30;;;;;;;6.97;2.20;;;;;;;5.51;77.19;94718.91;5436370;26;20295;-81
2024/04/16 01:02:55;;;;;;;8.40;2.03;;;;;;;5.38;77.72;94719.97;5436547;26;20645;-82
2024/04/16 01:05:21;;;;;;;8.53;1.87;;;;;;;5.47;77.57;94720.91;5442641;26;20327;-82
2024/04/16 01:07:46;;;;;;;8.43;1.80;;;;;;;5.26;77.96;94733.94;5404182;26;20309;-81
2024/04/16 01:10:11;;;;;;;6.00;2.07;;;;;;;5.35;77.06;94732.31;5440996;26;20291;-82
2024/04/16 01:12:44;;;;;;;10.47;2.40;;;;;;;5.54;76.97;94721.19;5415382;26;20276;-81
2024/04/16 01:15:09;;;;;;;9.07;1.97;;;;;;;5.47;76.79;94726.06;5404649;26;20246;-81
2024/04/16 01:17:34;;;;;;;9.17;1.77;;;;;;;5.47;76.56;94722.69;5427767;26;20274;-81
2024/04/16 01:20:00;;;;;;;6.40;2.07;;;;;;;5.45;77.12;94716.84;5431142;26;20343;-80
2024/04/16 01:22:25;;;;;;;8.27;2.10;;;;;;;5.52;76.66;94718.75;5448558;26;20234;-81
2024/04/16 01:24:50;;;;;;;10.80;2.17;;;;;;;5.49;76.30;94702.78;5431946;26;20240;-80
2024/04/16 01:27:16;;;;;;;9.23;2.17;;;;;;;5.58;76.47;94697.59;5440576;26;20243;-81
2024/04/16 01:29:42;;;;;;;4.67;1.50;;;;;;;5.77;75.72;94696.75;5434227;26;20723;-81
2024/04/16 01:32:07;;;;;;;9.10;1.93;;;;;;;5.52;75.81;94677.53;5439060;26;20314;-80
2024/04/16 01:34:32;;;;;;;10.20;2.00;;;;;;;5.50;76.32;94700.06;5435264;26;20246;-81
2024/04/16 01:36:58;;;;;;;11.43;2.10;;;;;;;5.55;75.36;94694.47;5407022;26;20242;-82
2024/04/16 01:39:23;;;;;;;6.83;2.17;;;;;;;5.65;75.47;94708.16;5447556;26;20218;-81
2024/04/16 01:41:49;;;;;;;9.57;1.90;;;;;;;5.58;75.71;94709.69;5430680;26;20312;-82
2024/04/16 01:44:14;;;;;;;7.23;1.70;;;;;;;5.54;75.66;94690.28;5423935;26;20230;-81
2024/04/16 01:46:40;;;;;;;7.67;1.87;;;;;;;5.58;76.17;94689.06;5416424;26;20684;-81
2024/04/16 01:49:05;;;;;;;9.57;1.53;;;;;;;5.52;75.96;94697.34;5442769;26;20325;-82
2024/04/16 01:51:30;;;;;;;12.37;2.13;;;;;;;5.48;76.40;94693.41;5412340;26;20286;-80
2024/04/16 01:53:56;;;;;;;6.53;1.33;;;;;;;5.60;75.83;94690.56;5431720;26;20239;-81
2024/04/16 01:56:21;;;;;;;11.57;2.40;;;;;;;5.54;75.21;94683.38;5430949;26;20289;-81
2024/04/16 01:58:46;;;;;;;9.37;2.03;;;;;;;5.50;75.94;94694.09;5443549;26;20239;-82
2024/04/16 02:01:12;;;;;;;8.53;1.83;;;;;;;5.63;75.50;94674.00;5441089;26;20246;-82
2024/04/16 02:03:37;;;;;;;5.67;1.70;;;;;;;5.66;75.13;94668.59;5439769;26;20255;-82
2024/04/16 02:06:06;;;;;;;6.97;1.93;;;;;;;5.64;75.18;94662.75;5439071;26;20235;-81
2024/04/16 02:08:32;;;;;;;8.07;1.83;;;;;;;5.49;75.66;94672.69;5432002;26;20231;-82
2024/04/16 02:10:57;;;;;;;9.43;1.80;;;;;;;5.56;75.85;94678.06;5372973;26;20282;-83
2024/04/16 02:13:24;;;;;;;6.07;2.20;;;;;;;5.19;76.34;94659.97;5405355;26;20693;-82
2024/04/16 02:15:50;;;;;;;12.40;2.40;;;;;;;5.64;76.31;94665.31;5408954;26;20241;-82
2024/04/16 02:18:16;;;;;;;9.33;2.10;;;;;;;5.15;76.68;94656.84;5414304;26;20246;-82
2024/04/16 02:20:41;;;;;;;8.47;1.97;;;;;;;5.40;76.64;94658.88;5436442;26;20834;-82
2024/04/16 02:23:06;;;;;;;6.73;2.20;;;;;;;5.29;77.53;94655.63;5439177;26;20285;-82
2024/04/16 02:25:32;;;;;;;10.07;2.20;;;;;;;5.32;78.01;94665.66;5434528;26;20273;-82
2024/04/16 02:27:57;;;;;;;12.53;1.97;;;;;;;5.14;78.74;94662.97;5441514;26;20283;-83
2024/04/16 02:30:22;;;;;;;10.97;1.93;;;;;;;4.98;78.56;94665.25;5411715;26;20258;-81
2024/04/16 02:32:47;;;;;;;7.63;1.90;;;;;;;4.85;79.11;94660.34;5440708;26;20274;-80
2024/04/16 02:35:13;;;;;;;5.33;1.93;;;;;;;5.04;78.55;94654.44;5405086;26;20589;-82
2024/04/16 02:37:38;;;;;;;4.33;1.63;;;;;;;5.02;78.98;94658.88;5408505;26;20247;-82
2024/04/16 02:40:04;;;;;;;7.40;2.30;;;;;;;5.01;78.87;94676.09;5437738;26;20294;-80
2024/04/16 02:42:30;;;;;;;8.13;2.03;;;;;;;4.67;79.25;94672.25;5432706;26;20247;-81
2024/04/16 02:44:55;;;;;;;10.53;2.30;;;;;;;4.81;79.21;94666.72;5436435;26;20285;-82
2024/04/16 02:47:20;;;;;;;8.93;1.97;;;;;;;4.81;79.25;94670.13;5436488;26;20576;-80
2024/04/16 02:49:46;;;;;;;5.80;1.60;;;;;;;4.87;79.71;94666.22;5431726;26;20291;-82
2024/04/16 02:52:14;;;;;;;4.47;1.53;;;;;;;4.89;78.97;94678.94;5414344;26;20242;-81
2024/04/16 02:54:40;;;;;;;6.83;1.80;;;;;;;4.78;79.50;94677.28;5393629;26;20256;-82
2024/04/16 02:57:08;;;;;;;7.10;1.67;;;;;;;4.78;79.67;94683.25;5445203;26;20237;-82
2024/04/16 02:59:33;;;;;;;4.23;1.70;;;;;;;4.65;80.65;94681.88;5433112;26;20246;-80
2024/04/16 03:01:59;;;;;;;5.80;1.90;;;;;;;4.78;80.29;94680.69;5442209;26;20407;-81
2024/04/16 03:04:24;;;;;;;8.20;1.90;;;;;;;4.88;79.17;94682.44;5439062;26;20637;-81
2024/04/16 03:06:49;;;;;;;11.20;2.17;;;;;;;4.74;78.52;94673.34;5449327;26;20346;-81
2024/04/16 03:09:15;;;;;;;6.53;1.60;;;;;;;4.79;78.50;94691.78;5438652;26;20285;-81
2024/04/16 03:11:40;;;;;;;5.70;1.90;;;;;;;4.95;78.16;94683.53;5438204;26;20795;-81
2024/04/16 03:14:05;;;;;;;6.00;1.93;;;;;;;5.03;78.03;94686.22;5406755;26;20277;-81
2024/04/16 03:16:31;;;;;;;11.13;2.30;;;;;;;5.08;77.23;94694.38;5405278;26;20269;-82
2024/04/16 03:18:56;;;;;;;7.27;1.77;;;;;;;5.17;77.02;94687.59;5438311;26;20585;-82
2024/04/16 03:21:21;;;;;;;6.60;1.90;;;;;;;4.90;77.04;94695.97;5424724;26;20243;-81
2024/04/16 03:23:48;;;;;;;8.87;1.90;;;;;;;5.04;76.71;94693.84;5434291;26;20233;-81
2024/04/16 03:26:13;;;;;;;7.77;1.80;;;;;;;5.00;76.72;94691.66;5428811;26;20240;-81
2024/04/16 03:28:38;;;;;;;8.30;1.83;;;;;;;5.17;76.45;94691.00;5441806;26;20578;-81
2024/04/16 03:31:04;;;;;;;5.53;1.67;;;;;;;5.08;75.84;94699.53;5426945;26;20604;-81
2024/04/16 03:33:31;;;;;;;5.40;1.80;;;;;;;5.02;75.82;94695.72;5429342;26;20238;-82
2024/04/16 03:35:57;;;;;;;6.43;1.83;;;;;;;5.08;76.27;94687.47;5433796;26;20238;-81
2024/04/16 03:38:25;;;;;;;6.83;1.90;;;;;;;4.92;76.61;94704.38;5431126;26;20288;-80
2024/04/16 03:40:57;;;;;;;5.17;1.60;;;;;;;5.11;76.12;94700.06;5432983;26;20250;-80
2024/04/16 03:43:23;;;;;;;5.63;1.87;;;;;;;5.00;76.49;94689.91;5431559;26;20724;-81
2024/04/16 03:45:52;;;;;;;8.80;2.03;;;;;;;5.09;76.50;94694.22;5434916;26;20282;-80
2024/04/16 03:48:17;;;;;;;7.73;2.07;;;;;;;5.05;76.28;94695.47;5435304;26;20277;-81
2024/04/16 03:50:42;;;;;;;11.33;1.73;;;;;;;4.73;76.04;94685.41;5403447;26;20245;-81
2024/04/16 03:53:08;;;;;;;8.07;2.03;;;;;;;4.94;75.95;94687.84;5442389;26;20246;-80
2024/04/16 03:55:33;;;;;;;6.60;2.13;;;;;;;5.01;75.71;94685.56;5390562;26;20246;-81
2024/04/16 03:57:58;;;;;;;9.23;2.27;;;;;;;5.07;75.71;94679.88;5399590;26;20268;-81
2024/04/16 04:03:08;;;;;;;6.87;2.07;;;;;;;5.05;75.87;94684.38;5432540;26;20275;-81
2024/04/16 04:05:33;;;;;;;10.57;2.30;;;;;;;4.90;76.68;94676.22;5431334;26;20235;-81
2024/04/16 04:07:58;;;;;;;12.80;2.23;;;;;;;4.90;76.76;94671.06;5400425;26;20265;-81
2024/04/16 04:10:24;;;;;;;8.60;2.00;;;;;;;5.07;76.41;94672.16;5428455;26;20326;-81
2024/04/16 04:12:49;;;;;;;7.00;2.40;;;;;;;4.63;77.40;94665.75;5404449;26;20627;-80
2024/04/16 04:15:14;;;;;;;5.90;2.17;;;;;;;4.83;77.28;94664.84;5433115;26;20255;-80
2024/04/16 04:17:40;;;;;;;11.00;2.60;;;;;;;4.74;76.92;94669.00;5394623;26;20298;-80
2024/04/16 04:20:05;;;;;;;8.70;2.13;;;;;;;4.86;76.60;94676.59;5434015;26;20288;-81
2024/04/16 04:22:31;;;;;;;10.63;1.93;;;;;;;4.79;77.03;94671.19;5428889;26;20246;-80
2024/04/16 04:24:56;;;;;;;12.63;1.97;;;;;;;4.70;76.60;94662.53;5405261;26;20882;-80
2024/04/16 04:27:22;;;;;;;9.00;2.43;;;;;;;4.81;76.51;94666.72;5406641;26;20247;-81
2024/04/16 04:29:47;;;;;;;12.20;2.13;;;;;;;4.74;76.49;94660.50;5401435;26;20715;-80
2024/04/16 04:32:15;;;;;;;8.30;2.20;;;;;;;4.54;76.47;94657.91;5419233;26;20287;-81
2024/04/16 04:34:40;;;;;;;10.13;2.97;;;;;;;4.84;76.17;94661.31;5425759;26;20242;-81
2024/04/16 04:37:05;;;;;;;9.47;2.37;;;;;;;4.78;76.57;94654.16;5431721;26;20265;-81
2024/04/16 04:39:31;;;;;;;11.27;2.03;;;;;;;4.74;77.05;94666.44;5400086;26;20296;-81
2024/04/16 04:41:56;;;;;;;10.30;2.33;;;;;;;4.67;77.28;94654.25;5401504;26;20239;-81
2024/04/16 04:44:21;;;;;;;10.80;2.40;;;;;;;4.74;77.20;94661.31;5434773;26;20292;-80
2024/04/16 04:46:46;;;;;;;8.53;2.13;;;;;;;4.81;76.25;94662.41;5429491;26;20242;-80
2024/04/16 04:49:12;;;;;;;12.90;2.27;;;;;;;4.88;75.68;94665.25;5429911;26;20282;-79
2024/04/16 04:51:37;;;;;;;7.93;1.70;;;;;;;4.66;77.60;94668.88;5430892;26;20243;-80
2024/04/16 04:54:03;;;;;;;9.67;2.30;;;;;;;4.88;76.18;94667.81;5423106;26;20706;-81
2024/04/16 04:56:28;;;;;;;9.23;2.10;;;;;;;5.18;75.64;94682.31;5443125;26;20242;-79
2024/04/16 04:58:53;;;;;;;9.97;2.60;;;;;;;4.99;75.84;94683.13;5429838;26;20312;-79
2024/04/16 05:01:19;;;;;;;9.10;2.20;;;;;;;5.00;76.04;94694.22;5400768;26;20247;-78
2024/04/16 05:03:44;;;;;;;8.37;2.10;;;;;;;4.84;75.67;94693.00;5431225;26;20249;-79
2024/04/16 05:06:09;;;;;;;11.13;2.27;;;;;;;5.18;74.57;94690.03;5396357;26;20809;-79
2024/04/16 05:08:34;;;;;;;10.73;2.60;;;;;;;5.17;73.82;94685.84;5435372;26;20251;-79
2024/04/16 05:11:00;;;;;;;7.87;1.90;;;;;;;4.86;74.05;94686.91;5403570;26;20740;-79
2024/04/16 05:13:25;;;;;;;13.37;2.50;;;;;;;5.33;73.33;94693.84;5429978;26;20346;-79
2024/04/16 05:15:50;;;;;;;8.47;2.03;;;;;;;5.55;72.81;94695.28;5431730;26;20247;-79
2024/04/16 05:18:16;;;;;;;11.27;2.30;;;;;;;5.61;72.47;94699.09;5423658;26;20243;-79
2024/04/16 05:20:46;;;;;;;7.57;2.13;;;;;;;5.45;72.39;94697.06;5441722;26;20617;-79
2024/04/16 05:23:12;;;;;;;11.93;1.93;;;;;;;5.86;71.53;94701.06;5379615;26;20247;-79
2024/04/16 05:25:37;;;;;;;8.67;1.93;;;;;;;5.88;71.01;94703.50;5426040;26;20274;-79
2024/04/16 05:28:03;;;;;;;10.10;2.33;;;;;;;5.76;71.17;94697.72;5430419;26;20229;-79
2024/04/16 05:30:28;;;;;;;6.83;1.90;;;;;;;5.74;71.38;94707.31;5443463;26;20301;-79
2024/04/16 05:32:53;;;;;;;7.13;1.90;;;;;;;5.64;71.09;94717.66;5406555;26;20648;-78
2024/04/16 05:35:19;;;;;;;8.13;1.90;;;;;;;5.79;70.33;94727.53;5424593;26;20283;-80
2024/04/16 05:37:44;;;;;;;5.40;1.60;;;;;;;6.22;69.85;94712.38;5401317;26;20260;-79
2024/04/16 05:40:10;;;;;;;6.83;1.70;;;;;;;6.12;68.78;94721.13;5432220;26;20240;-78
2024/04/16 05:42:36;;;;;;;14.03;2.77;;;;;;;5.93;68.43;94729.72;5437364;26;20357;-79
2024/04/16 05:45:01;;;;;;;9.43;1.90;;;;;;;6.14;68.37;94724.34;5434249;26;20242;-78
2024/04/16 05:47:26;;;;;;;13.50;2.13;;;;;;;6.18;68.78;94726.53;5429048;26;20351;-80
2024/04/16 05:49:52;;;;;;;10.10;2.23;;;;;;;6.05;69.53;94741.47;5427009;26;20778;-80
2024/04/16 05:52:18;;;;;;;5.50;1.70;;;;;;;6.12;69.43;94739.97;5427599;26;20255;-79
2024/04/16 05:54:43;;;;;;;6.93;1.50;;;;;;;6.16;68.81;94737.91;5377080;26;20247;-80
2024/04/16 05:57:09;;;;;;;11.63;2.30;;;;;;;6.24;68.69;94725.13;5441168;26;20347;-79
2024/04/16 05:59:34;;;;;;;7.60;1.77;;;;;;;6.10;67.45;94723.03;5419496;26;20235;-80
2024/04/16 06:01:59;;;;;;;7.43;1.93;;;;;;;6.52;66.53;94739.69;5430317;26;20317;-79
2024/04/16 06:04:25;;;;;;;8.03;1.70;;;;;;;6.25;66.20;94734.50;5423629;26;20789;-80
2024/04/16 06:06:51;;;;;;;5.73;2.10;;;;;;;6.20;66.50;94721.22;5398325;26;20251;-78
2024/04/16 06:09:16;;;;;;;8.97;1.80;;;;;;;6.21;65.87;94730.59;5395859;26;20276;-79
2024/04/16 06:11:42;;;;;;;7.60;1.63;;;;;;;6.22;66.00;94722.69;5434403;26;20266;-80
2024/04/16 06:14:07;;;;;;;6.90;1.73;;;;;;;6.55;65.01;94730.06;5426384;26;20234;-80
2024/04/16 06:16:32;;;;;;;5.80;1.60;;;;;;;6.45;63.92;94728.31;5433951;26;20239;-79
2024/04/16 06:18:58;;;;;;;9.80;2.20;;;;;;;6.33;64.53;94719.13;5436158;26;20744;-80
2024/04/16 06:21:23;;;;;;;6.13;1.53;;;;;;;6.53;64.14;94727.59;5393881;26;20347;-79
2024/04/16 06:23:52;;;;;;;7.83;1.87;;;;;;;6.56;63.71;94722.16;5428601;26;20283;-79
2024/04/16 06:26:17;;;;;;;6.00;1.30;;;;;;;6.51;62.93;94706.28;5427015;26;20243;-81
2024/04/16 06:28:43;;;;;;;5.13;1.57;;;;;;;6.94;61.57;94715.16;5395073;26;20270;-80
2024/04/16 06:31:08;;;;;;;10.20;2.07;;;;;;;6.99;61.83;94703.44;5445595;26;20317;-81
2024/04/16 06:33:36;;;;;;;8.40;1.97;;;;;;;7.32;60.64;94716.66;5434416;26;20235;-80
2024/04/16 06:36:05;;;;;;;6.30;1.33;;;;;;;7.23;60.93;94717.53;5437193;26;20239;-80
2024/04/16 06:38:31;;;;;;;6.60;1.50;;;;;;;7.18;61.40;94712.81;5429571;26;20240;-80
2024/04/16 06:40:56;;;;;;;7.60;1.63;;;;;;;7.42;60.84;94712.25;5439811;26;20234;-80
2024/04/16 06:43:22;;;;;;;4.43;1.80;;;;;;;7.34;60.31;94705.22;5405327;26;20251;-80
2024/04/16 06:45:47;;;;;;;4.57;1.70;;;;;;;6.97;60.04;94713.09;5429282;26;20246;-79
2024/04/16 06:48:12;;;;;;;5.13;1.73;;;;;;;7.25;60.02;94729.34;5438137;26;20231;-79
2024/04/16 06:50:38;;;;;;;5.50;1.37;;;;;;;7.21;59.19;94709.13;5405501;26;20251;-79
2024/04/16 06:53:04;;;;;;;4.73;1.30;;;;;;;6.95;59.40;94714.19;5427356;26;20268;-80
2024/04/16 06:55:32;;;;;;;7.87;1.97;;;;;;;7.34;58.95;94712.97;5433632;26;20239;-79
2024/04/16 06:57:57;;;;;;;8.03;1.47;;;;;;;7.51;59.10;94716.50;5436606;26;20234;-79
2024/04/16 07:00:23;;;;;;;6.50;1.20;;;;;;;7.08;58.51;94719.84;5433531;26;20241;-79
2024/04/16 07:02:48;;;;;;;6.13;1.43;;;;;;;7.00;58.33;94714.59;5431512;26;20265;-79
2024/04/16 07:05:14;;;;;;;4.67;1.53;;;;;;;7.17;57.66;94715.56;5395762;26;20813;-79
2024/04/16 07:07:39;;;;;;;5.77;1.40;;;;;;;7.05;57.14;94705.41;5437746;26;20240;-80
2024/04/16 07:10:05;;;;;;;5.60;1.47;;;;;;;7.38;57.64;94703.97;5425658;26;20240;-80
2024/04/16 07:12:30;;;;;;;6.97;1.30;;;;;;;7.77;56.89;94708.78;5425810;26;20277;-80
2024/04/16 07:14:55;;;;;;;4.77;1.50;;;;;;;7.16;55.52;94695.88;5403257;26;20332;-80
2024/04/16 07:17:22;;;;;;;7.50;1.40;;;;;;;6.96;56.30;94675.31;5429082;26;20243;-79
2024/04/16 07:19:48;;;;;;;4.23;1.40;;;;;;;7.40;56.08;94690.88;5384925;26;20248;-79
2024/04/16 07:22:14;;;;;;;8.93;1.43;;;;;;;7.14;56.02;94677.91;5437439;26;20234;-80
2024/04/16 07:24:39;;;;;;;6.93;1.30;;;;;;;6.65;56.01;94674.06;5425789;26;20240;-79
2024/04/16 07:27:04;;;;;;;3.67;1.20;;;;;;;7.29;56.20;94668.69;5418197;26;20579;-80
2024/04/16 07:29:30;;;;;;;5.67;1.30;;;;;;;7.53;54.93;94678.41;5426140;26;20239;-80
2024/04/16 07:31:55;;;;;;;6.60;1.40;;;;;;;7.83;52.91;94678.94;5395023;26;20239;-80
2024/04/16 07:34:21;;;;;;;5.03;1.37;;;;;;;7.42;54.65;94667.50;5424558;26;20272;-80
2024/04/16 07:36:46;;;;;;;5.40;1.17;;;;;;;7.64;54.46;94669.59;5431714;26;20279;-79
2024/04/16 07:39:12;;;;;;;5.27;1.30;;;;;;;7.72;53.64;94656.75;5431817;26;20234;-79
2024/04/16 07:41:37;;;;;;;7.40;1.40;;;;;;;7.57;54.43;94663.41;5448650;26;20284;-80
2024/04/16 07:44:02;;;;;;;4.40;1.20;;;;;;;7.83;53.61;94647.91;5436702;26;20272;-80
2024/04/16 07:46:28;;;;;;;5.90;1.20;;;;;;;7.63;54.21;94655.88;5397386;26;20261;-80
2024/04/16 07:48:53;;;;;;;4.10;1.20;;;;;;;7.36;55.28;94674.09;5411154;26;20235;-80
2024/04/16 07:51:18;;;;;;;4.33;1.20;;;;;;;7.10;57.84;94661.09;5394508;26;20320;-79
2024/04/16 07:53:44;;;;;;;4.17;1.03;;;;;;;7.75;56.94;94665.97;5432916;26;20277;-80
2024/04/16 07:56:09;;;;;;;5.67;1.40;;;;;;;7.27;58.22;94669.81;5425087;26;20580;-79
2024/04/16 07:58:34;;;;;;;4.27;1.10;;;;;;;7.20;62.22;94689.44;5424577;26;20247;-80
2024/04/16 08:01:00;;;;;;;8.57;1.40;;;;;;;7.21;63.08;94685.88;5400818;26;20277;-80
2024/04/16 08:03:25;;;;;;;2.77;1.00;;;;;;;7.28;63.24;94687.72;5405419;26;20819;-79
2024/04/16 08:05:51;;;;;;;3.93;1.00;;;;;;;7.36;62.75;94682.63;5443867;26;20281;-79
2024/04/16 08:08:16;;;;;;;4.43;1.23;;;;;;;7.48;62.52;94682.41;5446597;26;20238;-79
2024/04/16 08:10:42;;;;;;;7.13;1.27;;;;;;;7.46;62.31;94687.72;5399993;26;20246;-79
2024/04/16 08:13:07;;;;;;;6.43;1.60;;;;;;;7.73;60.60;94671.28;5405970;26;20273;-79
2024/04/16 08:15:32;;;;;;;7.13;1.30;;;;;;;7.59;60.65;94659.72;5438816;26;20278;-79
2024/04/16 08:17:58;;;;;;;7.13;1.40;;;;;;;7.74;60.76;94669.50;5429732;26;20334;-80
2024/04/16 08:20:23;;;;;;;5.87;1.67;;;;;;;8.03;60.37;94651.91;5434264;26;20243;-79
2024/04/16 08:22:48;;;;;;;4.07;1.40;;;;;;;6.84;61.74;94680.88;5415931;26;20253;-79
2024/04/16 08:25:14;;;;;;;4.97;1.47;;;;;;;7.20;62.52;94668.78;5408364;26;20915;-79
2024/04/16 08:27:39;;;;;;;5.73;1.20;;;;;;;7.35;61.88;94660.34;5424564;26;20258;-79
2024/04/16 08:30:05;;;;;;;7.70;1.50;;;;;;;7.61;62.47;94660.41;5432967;26;20235;-79
2024/04/16 08:32:30;;;;;;;3.23;1.33;;;;;;;7.66;61.42;94660.72;5436867;26;20243;-78
2024/04/16 08:34:56;;;;;;;4.53;1.23;;;;;;;7.51;60.47;94659.69;5424973;26;20234;-79
2024/04/16 08:37:21;;;;;;;4.63;1.00;;;;;;;7.08;61.69;94648.34;5430711;26;20277;-78
2024/04/16 08:39:46;;;;;;;4.43;1.40;;;;;;;6.86;61.45;94653.94;5399536;26;20251;-79
2024/04/16 08:42:12;;;;;;;5.43;1.27;;;;;;;7.04;60.71;94647.00;5410494;26;20241;-79
2024/04/16 08:44:38;;;;;;;6.27;1.00;;;;;;;7.41;59.72;94638.25;5421968;26;20239;-79
2024/04/16 08:47:04;;;;;;;2.10;1.00;;;;;;;7.63;59.53;94637.78;5427275;26;20235;-79
2024/04/16 08:49:30;;;;;;;5.80;1.00;;;;;;;7.63;58.47;94652.50;5403860;26;20254;-79
2024/04/16 08:51:56;;;;;;;2.33;0.90;;;;;;;7.89;58.66;94647.31;5432015;26;20240;-80
2024/04/16 08:54:22;;;;;;;4.20;1.23;;;;;;;8.08;57.96;94639.34;5426043;26;20277;-80
2024/04/16 08:56:49;;;;;;;5.20;1.33;;;;;;;8.42;56.60;94643.72;5438402;26;20571;-80
2024/04/16 08:59:15;;;;;;;3.53;1.30;;;;;;;8.84;54.34;94658.41;5431241;26;20256;-79
2024/04/16 09:01:40;;;;;;;6.97;1.20;;;;;;;8.57;55.76;94662.88;5421050;26;20235;-79
2024/04/16 09:04:06;;;;;;;4.17;1.27;;;;;;;8.79;54.81;94657.09;5430011;26;20230;-79
2024/04/16 09:06:32;;;;;;;5.93;1.30;;;;;;;8.62;55.14;94652.03;5441080;26;20246;-79
2024/04/16 09:08:59;;;;;;;5.87;1.20;;;;;;;8.47;55.58;94647.44;5433690;26;20848;-79
2024/04/16 09:11:26;;;;;;;5.27;1.37;;;;;;;9.31;54.28;94656.84;5395321;26;20290;-80
2024/04/16 09:13:51;;;;;;;5.20;1.23;;;;;;;9.33;52.93;94656.69;5433295;26;20246;-79
2024/04/16 09:16:18;;;;;;;5.10;1.20;;;;;;;9.45;53.43;94659.75;5427653;26;20273;-80
2024/04/16 09:18:44;;;;;;;4.17;1.10;;;;;;;9.21;53.13;94683.88;5388059;26;20657;-80
2024/04/16 09:21:09;;;;;;;3.13;1.33;;;;;;;9.55;54.13;94669.00;5388347;26;20246;-78
2024/04/16 09:23:35;;;;;;;5.77;1.40;;;;;;;9.76;55.28;94678.88;5405384;26;20269;-81
2024/04/16 09:26:00;;;;;;;2.87;1.10;;;;;;;9.26;58.42;94690.19;5405753;26;20855;-80
2024/04/16 09:28:26;;;;;;;4.23;1.00;;;;;;;9.04;58.23;94676.09;5396863;26;20277;-80
2024/04/16 09:30:55;;;;;;;5.27;1.40;;;;;;;8.95;58.72;94660.69;5396537;26;20332;-78
2024/04/16 09:33:20;;;;;;;6.13;1.50;;;;;;;8.74;59.20;94668.88;5425488;26;20248;-78
2024/04/16 09:35:46;;;;;;;3.13;0.80;;;;;;;7.92;62.10;94675.44;5427363;26;20266;-79
2024/04/16 09:38:11;;;;;;;3.13;1.60;;;;;;;8.21;62.94;94672.53;5399999;26;20231;-80
2024/04/16 09:40:36;;;;;;;5.03;1.20;;;;;;;8.13;65.59;94675.09;5398121;26;20311;-80
2024/04/16 09:43:03;;;;;;;4.60;1.20;;;;;;;8.01;64.48;94677.09;5430056;26;20238;-79
2024/04/16 09:45:29;;;;;;;5.23;1.13;;;;;;;7.89;66.62;94668.81;5425872;26;20240;-80
2024/04/16 09:47:58;;;;;;;5.17;1.20;;;;;;;8.08;66.19;94670.38;5437559;26;20613;-80
2024/04/16 09:50:25;;;;;;;3.00;1.00;;;;;;;8.83;64.13;94682.66;5430146;26;20353;-81
2024/04/16 09:52:52;;;;;;;3.13;1.13;;;;;;;8.13;65.50;94673.31;5399026;26;20256;-80
2024/04/16 09:55:21;;;;;;;2.97;0.90;;;;;;;8.06;66.73;94677.47;5417548;26;20651;-80
2024/04/16 09:57:47;;;;;;;3.53;1.20;;;;;;;7.84;66.82;94688.31;5432330;26;20239;-80
2024/04/16 10:00:14;;;;;;;2.70;0.90;;;;;;;7.74;66.57;94679.84;5365800;26;20290;-80
2024/04/16 10:02:39;;;;;;;5.13;1.33;;;;;;;7.70;65.67;94687.09;5423966;26;20251;-80
2024/04/16 10:05:04;;;;;;;1.97;0.90;;;;;;;7.06;66.88;94663.16;5392462;26;20618;-80
2024/04/16 10:07:30;;;;;;;4.60;1.33;;;;;;;7.33;68.19;94672.63;5438870;26;20231;-80
2024/04/16 10:09:55;;;;;;;4.47;1.20;;;;;;;7.82;68.14;94677.31;5401410;26;20791;-80
2024/04/16 10:12:21;;;;;;;2.83;1.00;;;;;;;7.70;70.30;94683.72;5398368;26;20610;-77
2024/04/16 10:14:47;;;;;;;1.10;0.77;;;;;;;7.38;69.72;94675.53;5428612;26;20227;-79
2024/04/16 10:17:13;;;;;;;5.47;1.30;;;;;;;7.46;70.29;94677.38;5422745;26;20320;-80
2024/04/16 10:19:38;;;;;;;2.73;0.90;;;;;;;7.39;71.17;94681.53;5371529;26;20247;-78
2024/04/16 10:22:11;;;;;;;3.37;1.10;;;;;;;6.88;72.33;94682.19;5440495;26;20317;-82
2024/04/16 10:24:36;;;;;;;2.77;0.80;;;;;;;7.83;70.58;94678.94;5424700;26;20265;-81
2024/04/16 10:27:02;;;;;;;3.10;0.83;;;;;;;7.51;70.73;94670.00;5429368;26;20286;-81
2024/04/16 10:29:27;;;;;;;4.50;1.27;;;;;;;7.48;69.12;94652.22;5430043;26;20243;-80
2024/04/16 10:31:54;;;;;;;2.63;1.17;;;;;;;8.06;68.87;94645.63;5447102;26;20234;-80
2024/04/16 10:34:24;;;;;;;6.20;1.13;;;;;;;8.04;67.94;94643.22;5404749;26;20794;-80
2024/04/16 10:36:50;;;;;;;5.20;1.30;;;;;;;8.59;67.17;94623.88;5399056;26;20268;-80
2024/04/16 10:39:16;;;;;;;3.90;1.20;;;;;;;8.70;67.10;94626.97;5400795;26;20241;-80
2024/04/16 10:41:56;;;;;;;4.07;1.20;;;;;;;9.22;64.73;94644.03;5398109;26;20824;-81
2024/04/16 10:44:22;;;;;;;4.30;1.00;;;;;;;8.47;65.96;94628.53;5375485;26;20306;-81
2024/04/16 10:46:49;;;;;;;3.50;1.13;;;;;;;8.48;67.34;94640.47;5429272;26;20242;-81
2024/04/16 10:49:15;;;;;;;6.27;0.97;;;;;;;9.14;67.65;94644.03;5431821;26;20349;-79
2024/04/16 10:51:40;;;;;;;2.00;0.93;;;;;;;8.42;69.55;94648.91;5410687;26;20262;-79
2024/04/16 10:54:07;;;;;;;2.27;0.87;;;;;;;8.51;68.70;94650.53;5428746;26;20585;-81
2024/04/16 10:56:36;;;;;;;2.43;1.20;;;;;;;9.05;68.45;94643.22;5435659;26;20231;-80
2024/04/16 10:59:12;;;;;;;3.67;1.17;;;;;;;9.59;66.77;94643.56;5441975;26;20258;-81
2024/04/16 11:01:39;;;;;;;2.73;0.97;;;;;;;8.85;67.62;94639.31;5429539;26;20255;-80
2024/04/16 11:04:10;;;;;;;3.33;1.10;;;;;;;9.56;67.26;94649.06;5433787;26;20299;-80
2024/04/16 11:06:36;;;;;;;2.97;1.13;;;;;;;8.94;65.49;94635.78;5435791;26;20235;-82
2024/04/16 11:09:03;;;;;;;6.30;1.20;;;;;;;9.08;65.62;94632.53;5448334;26;20286;-79
2024/04/16 11:11:29;;;;;;;2.37;1.10;;;;;;;9.80;64.24;94619.69;5443898;26;20318;-80
2024/04/16 11:13:54;;;;;;;3.50;1.00;;;;;;;9.11;64.06;94624.47;5449243;26;20234;-80
2024/04/16 11:16:21;;;;;;;3.53;1.00;;;;;;;9.13;63.24;94624.28;5444048;26;20267;-79
2024/04/16 11:18:46;;;;;;;1.67;0.83;;;;;;;9.54;62.93;94609.53;5450075;26;20246;-80
2024/04/16 11:21:12;;;;;;;3.90;1.00;;;;;;;10.00;63.78;94622.75;5433080;26;20237;-81
2024/04/16 11:23:39;;;;;;;3.00;1.03;;;;;;;9.22;63.78;94631.09;5437544;26;20242;-83
2024/04/16 11:26:04;;;;;;;2.53;1.00;;;;;;;10.04;64.68;94657.75;5436943;26;20319;-83
2024/04/16 11:28:33;;;;;;;2.90;1.20;;;;;;;9.99;63.07;94634.91;5427718;26;20246;-80
2024/04/16 11:30:58;;;;;;;4.03;1.13;;;;;;;9.32;65.01;94647.28;5427728;26;20316;-79
2024/04/16 11:33:24;;;;;;;4.00;0.80;;;;;;;9.16;66.22;94647.28;5436833;26;20238;-80
2024/04/16 11:35:50;;;;;;;6.13;0.90;;;;;;;9.48;66.65;94662.84;5405489;26;20342;-80
2024/04/16 11:38:20;;;;;;;2.53;0.90;;;;;;;9.35;65.55;94673.66;5432131;26;20647;-81